Time;durP1;ratioP1;P1;durP2;ratioP2;P2;SDS_P1;SDS_P2;PMS_P1;PMS_P2;Temp;Humidity;BMP_temperature;BMP_pressure;BME280_temperature;BME280_humidity;BME280_pressure;Samples;Min_cycle;Max_cycle;Signal;HPM_P1;HPM_P2
2022/08/04 03:01:26;;;;;;;0.70;0.50;;;25.50;59.80;;;;;;5685318;22;20491;-70
2022/08/04 03:04:02;;;;;;;0.70;0.60;;;25.50;60.00;;;;;;5037095;28;20530;-70
2022/08/04 03:06:58;;;;;;;0.70;0.60;;;25.60;60.00;;;;;;5037073;28;20435;-70
2022/08/04 03:09:56;;;;;;;0.70;0.60;;;25.60;60.20;;;;;;5036959;28;20470;-71
2022/08/04 03:13:15;;;;;;;0.70;0.50;;;25.60;59.80;;;;;;5036863;28;20528;-70
2022/08/04 03:16:09;;;;;;;0.70;0.60;;;25.60;60.00;;;;;;5061553;22;20499;-72
2022/08/04 03:19:16;;;;;;;0.70;0.50;;;25.50;60.00;;;;;;5036892;28;20530;-75
2022/08/04 03:22:22;;;;;;;0.70;0.60;;;25.50;60.00;;;;;;5036705;28;20516;-75
2022/08/04 03:25:36;;;;;;;0.80;0.60;;;25.40;59.70;;;;;;5036540;28;20509;-75
2022/08/04 03:28:33;;;;;;;0.70;0.50;;;25.40;59.60;;;;;;4975549;28;20434;-75
2022/08/04 03:31:19;;;;;;;0.80;0.60;;;25.30;59.80;;;;;;4975451;28;20442;-75
2022/08/04 03:34:10;;;;;;;0.70;0.50;;;25.30;59.50;;;;;;5029312;28;20493;-74
2022/08/04 03:36:55;;;;;;;0.70;0.53;;;25.30;59.70;;;;;;5036253;28;20466;-75
2022/08/04 03:40:03;;;;;;;0.70;0.60;;;25.20;59.80;;;;;;5036447;28;20431;-74
2022/08/04 03:42:44;;;;;;;0.80;0.60;;;25.10;60.50;;;;;;5036329;28;20451;-74
2022/08/04 03:45:40;;;;;;;0.70;0.70;;;25.10;60.90;;;;;;5036249;28;20459;-76
2022/08/04 03:48:34;;;;;;;0.80;0.60;;;25.00;61.40;;;;;;5035968;28;20838;-74
2022/08/04 03:54:30;;;;;;;0.70;0.50;;;24.90;61.10;;;;;;5036292;28;20779;-75
2022/08/04 03:57:28;;;;;;;0.70;0.50;;;24.90;61.50;;;;;;5036095;28;20428;-75
2022/08/04 04:00:08;;;;;;;1.00;0.60;;;24.80;61.70;;;;;;5035922;28;20432;-75
2022/08/04 04:03:05;;;;;;;1.10;0.60;;;24.80;62.10;;;;;;5035989;28;20460;-75
2022/08/04 04:05:48;;;;;;;0.70;0.50;;;24.70;62.20;;;;;;5036467;28;20467;-76
2022/08/04 04:08:42;;;;;;;0.70;0.70;;;24.50;62.40;;;;;;5035853;28;20432;-75
2022/08/04 04:11:36;;;;;;;0.70;0.50;;;24.50;62.60;;;;;;5035908;28;20447;-75
2022/08/04 04:14:27;;;;;;;0.70;0.50;;;24.50;62.90;;;;;;5035801;28;20432;-76
2022/08/04 04:17:21;;;;;;;0.70;0.60;;;24.40;62.20;;;;;;5035291;28;20475;-75
2022/08/04 04:20:13;;;;;;;0.70;0.60;;;24.30;62.20;;;;;;5035811;28;20462;-75
2022/08/04 04:22:55;;;;;;;0.70;0.60;;;24.40;62.80;;;;;;5035840;28;20430;-75
2022/08/04 04:25:35;;;;;;;0.80;0.60;;;24.40;62.70;;;;;;5035511;28;20530;-76
2022/08/04 04:28:21;;;;;;;0.70;0.50;;;24.40;62.70;;;;;;5035251;28;20911;-75
2022/08/04 04:30:59;;;;;;;0.70;0.60;;;24.50;62.20;;;;;;5035485;28;20443;-75
2022/08/04 04:33:39;;;;;;;0.70;0.60;;;24.50;62.20;;;;;;5035426;28;20427;-75
2022/08/04 04:36:12;;;;;;;0.80;0.60;;;24.50;62.60;;;;;;5035218;28;20487;-74
2022/08/04 04:38:52;;;;;;;0.80;0.80;;;24.60;62.50;;;;;;5035350;28;20490;-75
2022/08/04 04:41:47;;;;;;;0.70;0.60;;;24.60;62.60;;;;;;5035281;28;20840;-75
2022/08/04 04:44:44;;;;;;;0.70;0.60;;;24.80;62.50;;;;;;5034946;28;20854;-76
2022/08/04 04:47:18;;;;;;;0.70;0.50;;;24.90;62.40;;;;;;5035170;28;20486;-74
2022/08/04 04:49:54;;;;;;;0.70;0.60;;;25.00;62.20;;;;;;5035089;28;20435;-75
2022/08/04 04:52:28;;;;;;;0.80;0.60;;;25.10;61.80;;;;;;5034790;28;20427;-75
2022/08/04 04:55:02;;;;;;;0.88;0.68;;;25.20;60.80;;;;;;5034897;28;20487;-76
2022/08/04 04:57:35;;;;;;;0.80;0.60;;;25.40;59.60;;;;;;5034960;28;20189;-75
2022/08/04 05:00:05;;;;;;;1.10;0.67;;;25.50;59.10;;;;;;5034968;28;20436;-75
2022/08/04 05:02:49;;;;;;;0.70;0.60;;;25.70;59.10;;;;;;5034805;28;20482;-75
2022/08/04 05:05:37;;;;;;;0.70;0.60;;;25.80;59.60;;;;;;5034716;28;20513;-75
2022/08/04 05:08:39;;;;;;;0.70;0.50;;;25.90;60.70;;;;;;5034786;28;20473;-75
2022/08/04 05:11:29;;;;;;;0.70;0.50;;;26.10;60.30;;;;;;5034646;28;20516;-75
2022/08/04 05:14:00;;;;;;;0.70;0.60;;;26.20;59.70;;;;;;5034165;28;20482;-75
2022/08/04 05:16:34;;;;;;;0.67;0.50;;;26.40;59.60;;;;;;5034196;28;20490;-75
2022/08/04 05:19:17;;;;;;;0.70;0.50;;;26.50;60.30;;;;;;5034194;28;20906;-74
2022/08/04 05:21:48;;;;;;;0.80;0.80;;;26.60;60.30;;;;;;5034476;28;20432;-76
2022/08/04 05:24:19;;;;;;;0.73;0.50;;;26.70;59.50;;;;;;5034331;28;20440;-76
2022/08/04 05:26:52;;;;;;;0.70;0.60;;;26.70;57.60;;;;;;5033754;28;20840;-75
2022/08/04 05:29:27;;;;;;;0.70;0.60;;;26.70;56.90;;;;;;5034146;28;20507;-75
2022/08/04 05:31:55;;;;;;;0.70;0.60;;;26.80;56.70;;;;;;5034103;28;20490;-75
2022/08/04 05:34:24;;;;;;;0.70;0.50;;;26.90;56.60;;;;;;5034417;28;20456;-75
2022/08/04 05:36:54;;;;;;;0.70;0.60;;;26.90;55.80;;;;;;5033825;28;20490;-75
2022/08/04 05:39:24;;;;;;;0.70;0.53;;;27.00;55.60;;;;;;5033927;28;20836;-75
2022/08/04 05:41:52;;;;;;;0.70;0.60;;;27.00;55.30;;;;;;5034018;28;20523;-75
2022/08/04 05:44:23;;;;;;;0.70;0.60;;;27.00;55.50;;;;;;5033806;28;20443;-75
2022/08/04 05:46:54;;;;;;;0.70;0.50;;;27.00;55.70;;;;;;5033847;28;20554;-75
2022/08/04 05:49:22;;;;;;;0.70;0.60;;;27.00;55.50;;;;;;5033482;28;20432;-75
2022/08/04 05:51:50;;;;;;;0.70;0.60;;;27.20;55.60;;;;;;5033750;28;20451;-74
2022/08/04 05:54:19;;;;;;;0.70;0.60;;;27.40;55.70;;;;;;5033797;28;20505;-75
2022/08/04 05:56:47;;;;;;;0.70;0.60;;;27.40;55.20;;;;;;5033458;28;20492;-75
2022/08/04 05:59:15;;;;;;;0.90;0.57;;;27.30;55.70;;;;;;5033792;28;20447;-75
2022/08/04 06:01:45;;;;;;;0.70;0.50;;;27.30;56.20;;;;;;5033585;28;20444;-75
2022/08/04 06:04:14;;;;;;;0.70;0.57;;;27.10;56.40;;;;;;5033513;28;20451;-76
2022/08/04 06:06:42;;;;;;;1.07;0.60;;;27.10;56.90;;;;;;5033384;28;20460;-75
2022/08/04 06:09:10;;;;;;;0.70;0.60;;;27.00;58.10;;;;;;5033420;28;20439;-74
2022/08/04 06:11:39;;;;;;;0.70;0.53;;;27.00;57.80;;;;;;5033161;28;20498;-75
2022/08/04 06:14:10;;;;;;;0.80;0.60;;;27.10;57.70;;;;;;5033899;28;20447;-75
2022/08/04 06:16:41;;;;;;;0.70;0.60;;;27.10;58.30;;;;;;5032989;28;20978;-75
2022/08/04 06:19:11;;;;;;;1.17;0.70;;;27.00;59.80;;;;;;5033382;28;20495;-75
2022/08/04 06:21:41;;;;;;;0.70;0.50;;;27.10;60.00;;;;;;5033195;28;20524;-75
2022/08/04 06:24:11;;;;;;;0.70;0.70;;;27.50;57.50;;;;;;5032375;28;20531;-75
2022/08/04 06:26:39;;;;;;;0.80;0.70;;;27.80;58.60;;;;;;5033355;28;20464;-75
2022/08/04 06:29:14;;;;;;;0.70;0.60;;;27.80;57.80;;;;;;5032829;28;20998;-75
2022/08/04 06:31:46;;;;;;;0.70;0.60;;;27.90;59.40;;;;;;5033152;28;20470;-75
2022/08/04 06:34:15;;;;;;;0.80;0.60;;;28.20;58.30;;;;;;5033371;28;20432;-74
2022/08/04 06:36:43;;;;;;;0.70;0.60;;;28.40;56.80;;;;;;5032918;28;20493;-76
2022/08/04 06:39:11;;;;;;;0.80;0.60;;;28.50;56.50;;;;;;5032930;28;20444;-75
2022/08/04 06:41:38;;;;;;;0.70;0.50;;;28.40;55.20;;;;;;5032927;28;20447;-75
2022/08/04 06:44:08;;;;;;;0.70;0.50;;;28.40;55.20;;;;;;5032909;28;20501;-75
2022/08/04 06:46:37;;;;;;;0.90;0.60;;;28.40;54.70;;;;;;5032914;28;20467;-75
2022/08/04 06:49:04;;;;;;;0.70;0.60;;;28.50;54.70;;;;;;5032823;28;20452;-76
2022/08/04 06:51:34;;;;;;;1.00;0.60;;;28.60;54.50;;;;;;5032589;28;20939;-75
2022/08/04 06:54:00;;;;;;;0.70;0.60;;;28.60;55.10;;;;;;5032900;28;20448;-75
2022/08/04 06:56:29;;;;;;;0.70;0.60;;;29.00;54.10;;;;;;5032730;28;20487;-75
2022/08/04 06:58:59;;;;;;;0.87;0.70;;;29.30;53.90;;;;;;5032543;28;20965;-75
2022/08/04 07:01:27;;;;;;;0.90;0.63;;;29.30;54.10;;;;;;5032868;28;20448;-76
2022/08/04 07:03:54;;;;;;;0.73;0.53;;;29.50;52.50;;;;;;5032796;28;20454;-76
2022/08/04 07:06:22;;;;;;;0.90;0.60;;;29.60;51.20;;;;;;5032630;28;20464;-75
2022/08/04 07:08:51;;;;;;;0.80;0.60;;;29.70;53.30;;;;;;5032861;28;20547;-75
2022/08/04 07:11:19;;;;;;;0.70;0.60;;;29.80;50.70;;;;;;5032778;28;20447;-76
2022/08/04 07:13:48;;;;;;;1.80;0.60;;;29.90;52.70;;;;;;5032743;28;20872;-76
2022/08/04 07:16:16;;;;;;;0.90;0.70;;;30.10;52.30;;;;;;5032181;28;20982;-75
2022/08/04 07:18:43;;;;;;;0.70;0.50;;;30.20;51.00;;;;;;5032736;28;20451;-75
2022/08/04 07:21:17;;;;;;;0.70;0.60;;;30.40;50.90;;;;;;5033228;28;20448;-76
2022/08/04 07:23:45;;;;;;;0.70;0.57;;;30.50;50.30;;;;;;5032695;28;20440;-75
2022/08/04 07:26:14;;;;;;;0.90;0.70;;;30.80;50.30;;;;;;5032576;28;20464;-76
2022/08/04 07:28:41;;;;;;;0.90;0.60;;;31.10;50.20;;;;;;5032889;28;20447;-75
2022/08/04 07:31:11;;;;;;;0.70;0.60;;;31.30;49.20;;;;;;5032539;28;20443;-76
2022/08/04 07:33:38;;;;;;;0.70;0.53;;;31.30;48.30;;;;;;5032533;28;20926;-75
2022/08/04 07:36:05;;;;;;;0.70;0.60;;;31.40;48.70;;;;;;5033833;28;20959;-75
2022/08/04 07:38:33;;;;;;;0.70;0.60;;;31.40;48.90;;;;;;5036199;28;20505;-75
2022/08/04 07:41:02;;;;;;;0.70;0.60;;;31.40;47.40;;;;;;5036157;28;20451;-76
2022/08/04 07:43:31;;;;;;;0.70;0.53;;;31.20;49.10;;;;;;5035717;28;20956;-75
2022/08/04 07:45:58;;;;;;;0.63;0.50;;;31.30;47.70;;;;;;5035969;28;20459;-75
2022/08/04 07:48:25;;;;;;;0.70;0.50;;;31.40;48.90;;;;;;5036102;28;20451;-75
2022/08/04 07:50:52;;;;;;;0.80;0.60;;;31.40;48.30;;;;;;5036047;28;20455;-75
2022/08/04 07:53:19;;;;;;;0.70;0.50;;;31.60;49.20;;;;;;5036002;28;20451;-75
2022/08/04 07:55:47;;;;;;;0.70;0.60;;;31.90;49.60;;;;;;5035805;28;20466;-76
2022/08/04 07:58:13;;;;;;;0.70;0.50;;;31.90;48.50;;;;;;5035844;28;20478;-75
2022/08/04 08:00:45;;;;;;;0.70;0.60;;;31.90;48.30;;;;;;5035801;28;20455;-75
2022/08/04 08:03:13;;;;;;;1.00;0.70;;;31.50;48.00;;;;;;5035723;28;20455;-76
2022/08/04 08:05:40;;;;;;;0.70;0.60;;;31.40;48.60;;;;;;5035251;28;20970;-76
2022/08/04 08:08:06;;;;;;;0.70;0.50;;;31.40;48.70;;;;;;5035522;28;21033;-75
2022/08/04 08:10:33;;;;;;;0.77;0.67;;;31.50;49.00;;;;;;5035529;28;20501;-76
2022/08/04 08:13:01;;;;;;;0.70;0.50;;;31.40;49.50;;;;;;5035172;28;20943;-75
2022/08/04 08:15:27;;;;;;;0.70;0.50;;;31.40;48.30;;;;;;5035143;28;20486;-76
2022/08/04 08:17:55;;;;;;;0.70;0.60;;;31.70;49.70;;;;;;5035323;28;20900;-75
2022/08/04 08:20:22;;;;;;;0.70;0.50;;;32.00;49.20;;;;;;5035294;28;20475;-76
2022/08/04 08:22:49;;;;;;;0.80;0.60;;;32.20;48.80;;;;;;5035244;28;20451;-76
2022/08/04 08:25:15;;;;;;;0.80;0.60;;;32.40;47.80;;;;;;5035224;28;20522;-76
2022/08/04 08:27:42;;;;;;;0.80;0.60;;;32.10;48.30;;;;;;5035294;28;20478;-75
2022/08/04 08:30:10;;;;;;;0.70;0.60;;;32.20;48.40;;;;;;5035182;28;20513;-76
2022/08/04 08:32:37;;;;;;;0.70;0.60;;;32.30;49.30;;;;;;5035129;28;20452;-75
2022/08/04 08:35:06;;;;;;;0.60;0.60;;;32.50;47.70;;;;;;5035483;28;20526;-76
2022/08/04 08:37:37;;;;;;;0.70;0.50;;;32.20;48.20;;;;;;5035021;28;20881;-76
2022/08/04 08:40:22;;;;;;;0.60;0.50;;;32.00;47.60;;;;;;5035169;28;20427;-75
2022/08/04 08:43:11;;;;;;;0.70;0.60;;;32.30;48.50;;;;;;5034633;28;20461;-75
2022/08/04 08:46:04;;;;;;;0.60;0.60;;;32.40;48.00;;;;;;5034749;28;20463;-74
2022/08/04 08:48:47;;;;;;;0.70;0.60;;;32.40;48.40;;;;;;5033773;28;20764;-74
2022/08/04 08:51:49;;;;;;;0.63;0.50;;;32.50;48.20;;;;;;5034523;28;20913;-74
2022/08/04 08:54:42;;;;;;;0.70;0.60;;;32.70;46.80;;;;;;5029647;28;20508;-75
2022/08/04 08:57:26;;;;;;;0.70;0.60;;;32.90;45.00;;;;;;5034604;28;20467;-75
2022/08/04 09:00:04;;;;;;;0.67;0.57;;;33.00;46.10;;;;;;5034653;28;20439;-75
2022/08/04 09:02:59;;;;;;;0.60;0.50;;;33.30;46.60;;;;;;5034573;28;20428;-75
2022/08/04 09:05:51;;;;;;;0.60;0.60;;;33.30;45.50;;;;;;5034575;28;20513;-75
2022/08/04 09:08:37;;;;;;;0.60;0.53;;;33.20;47.00;;;;;;5032413;28;20487;-75
2022/08/04 09:11:08;;;;;;;0.67;0.53;;;33.40;46.50;;;;;;5034043;28;20829;-74
2022/08/04 09:13:41;;;;;;;0.70;0.57;;;33.60;44.80;;;;;;5034446;28;20523;-74
2022/08/04 09:16:16;;;;;;;0.70;0.50;;;33.60;44.90;;;;;;5058628;22;20545;-73
2022/08/04 09:18:52;;;;;;;0.60;0.50;;;33.60;45.40;;;;;;5034713;28;20490;-73
2022/08/04 09:21:37;;;;;;;0.60;0.50;;;33.60;44.90;;;;;;5034605;28;20486;-74
2022/08/04 09:24:11;;;;;;;0.80;0.50;;;33.80;45.80;;;;;;5034505;28;20435;-74
2022/08/04 09:26:43;;;;;;;0.70;0.60;;;34.10;45.00;;;;;;5034477;28;20471;-74
2022/08/04 09:29:17;;;;;;;0.70;0.60;;;34.20;45.00;;;;;;5034559;28;20466;-74
2022/08/04 09:31:51;;;;;;;0.60;0.50;;;34.30;44.20;;;;;;5034938;28;20439;-74
2022/08/04 09:34:27;;;;;;;0.60;0.50;;;34.00;44.40;;;;;;5034391;28;20431;-73
2022/08/04 09:37:02;;;;;;;0.60;0.60;;;33.90;45.60;;;;;;5034103;28;20491;-73
2022/08/04 09:39:46;;;;;;;0.60;0.60;;;34.20;43.80;;;;;;5034227;28;20798;-74
2022/08/04 09:42:20;;;;;;;0.60;0.50;;;34.40;44.00;;;;;;5034191;28;20895;-74
2022/08/04 09:44:56;;;;;;;0.60;0.50;;;34.30;43.80;;;;;;5033956;28;20915;-74
2022/08/04 09:47:30;;;;;;;0.70;0.60;;;34.40;44.90;;;;;;5034016;28;20525;-73
2022/08/04 09:50:04;;;;;;;0.70;0.60;;;34.30;44.90;;;;;;5034055;28;20424;-74
2022/08/04 09:52:42;;;;;;;0.60;0.60;;;34.50;44.10;;;;;;5034081;28;20443;-73
2022/08/04 09:55:18;;;;;;;0.70;0.60;;;34.30;43.70;;;;;;5033647;28;20438;-73
2022/08/04 09:57:57;;;;;;;0.70;0.70;;;34.30;43.30;;;;;;5033850;28;20463;-73
2022/08/04 10:00:29;;;;;;;0.70;0.60;;;34.40;44.70;;;;;;5033955;28;20436;-74
2022/08/04 10:02:59;;;;;;;0.70;0.60;;;34.60;43.10;;;;;;5033857;28;20432;-75
2022/08/04 10:05:39;;;;;;;0.70;0.60;;;34.90;42.60;;;;;;5033855;28;20474;-74
2022/08/04 10:08:22;;;;;;;0.60;0.60;;;35.00;41.20;;;;;;5033843;28;20481;-74
2022/08/04 10:11:06;;;;;;;0.60;0.60;;;34.60;41.70;;;;;;5033462;28;20435;-74
2022/08/04 10:13:44;;;;;;;0.70;0.60;;;34.50;39.50;;;;;;5033699;28;20599;-74
2022/08/04 10:16:32;;;;;;;0.60;0.50;;;34.80;42.30;;;;;;5033513;28;20479;-74
2022/08/04 10:19:12;;;;;;;0.60;0.50;;;35.00;39.90;;;;;;5033645;28;20431;-74
2022/08/04 10:21:52;;;;;;;0.93;0.60;;;35.20;40.50;;;;;;5033749;28;20439;-73
2022/08/04 10:24:35;;;;;;;0.70;0.60;;;35.20;39.50;;;;;;5033628;28;20515;-73
2022/08/04 10:27:10;;;;;;;0.80;0.60;;;35.00;38.90;;;;;;5033411;28;20865;-73
2022/08/04 10:29:42;;;;;;;0.60;0.50;;;35.10;38.30;;;;;;5033578;28;20858;-74
2022/08/04 10:32:15;;;;;;;0.60;0.60;;;35.30;39.50;;;;;;5033478;28;20465;-74
2022/08/04 10:34:48;;;;;;;0.60;0.50;;;35.60;38.90;;;;;;5033448;28;20427;-73
2022/08/04 10:37:21;;;;;;;0.60;0.50;;;35.50;38.60;;;;;;5033292;28;20487;-74
2022/08/04 10:42:48;;;;;;;0.60;0.50;;;35.80;38.10;;;;;;5033238;28;20422;-74
2022/08/04 10:45:19;;;;;;;0.60;0.50;;;35.90;38.70;;;;;;5033370;28;20517;-74
2022/08/04 10:47:56;;;;;;;0.60;0.50;;;35.70;38.00;;;;;;5033282;28;20910;-74
2022/08/04 10:50:24;;;;;;;0.70;0.60;;;35.70;38.00;;;;;;5033404;28;20435;-74
2022/08/04 10:53:00;;;;;;;0.70;0.60;;;35.60;38.30;;;;;;5033033;28;20963;-74
2022/08/04 10:55:33;;;;;;;1.00;0.60;;;35.60;38.90;;;;;;5033249;28;20474;-74
2022/08/04 10:58:03;;;;;;;0.60;0.57;;;35.70;39.00;;;;;;5032882;28;20463;-74
2022/08/04 11:00:33;;;;;;;0.80;0.60;;;36.00;39.20;;;;;;5033260;28;20456;-74
2022/08/04 11:03:08;;;;;;;0.70;0.50;;;36.00;39.00;;;;;;5033161;28;20451;-74
2022/08/04 11:05:39;;;;;;;0.60;0.50;;;36.20;38.50;;;;;;5033070;28;20549;-74
2022/08/04 11:08:11;;;;;;;0.70;0.60;;;36.10;37.50;;;;;;5033055;28;20446;-74
2022/08/04 11:10:45;;;;;;;0.70;0.50;;;36.00;38.10;;;;;;5034216;28;20522;-73
2022/08/04 11:13:17;;;;;;;0.80;0.60;;;35.50;38.10;;;;;;5037057;28;20443;-74
2022/08/04 11:15:49;;;;;;;0.60;0.50;;;35.50;39.10;;;;;;5036779;28;20888;-74
2022/08/04 11:18:25;;;;;;;0.60;0.50;;;35.60;39.30;;;;;;5036728;28;20840;-74
2022/08/04 11:20:56;;;;;;;0.70;0.50;;;35.70;38.40;;;;;;5037061;28;20481;-74
2022/08/04 11:23:28;;;;;;;0.60;0.50;;;35.50;38.10;;;;;;5037031;28;20470;-74
2022/08/04 11:26:00;;;;;;;0.70;0.60;;;35.40;38.60;;;;;;5036723;28;20467;-73
2022/08/04 11:28:46;;;;;;;0.60;0.50;;;35.50;38.60;;;;;;5036716;28;20523;-73
2022/08/04 11:31:18;;;;;;;0.60;0.60;;;35.40;38.50;;;;;;5036701;28;20502;-73
2022/08/04 11:33:52;;;;;;;0.60;0.50;;;35.50;37.80;;;;;;5036599;28;20434;-74
2022/08/04 11:36:24;;;;;;;0.60;0.50;;;35.50;38.20;;;;;;5036552;28;20478;-73
2022/08/04 11:38:59;;;;;;;0.70;0.60;;;35.90;38.00;;;;;;5036134;28;20490;-73
2022/08/04 11:41:41;;;;;;;0.70;0.50;;;36.30;38.60;;;;;;5036192;28;20480;-73
2022/08/04 11:44:16;;;;;;;0.70;0.60;;;36.50;37.00;;;;;;5036159;28;20436;-73
2022/08/04 11:46:50;;;;;;;0.70;0.50;;;36.80;36.90;;;;;;5037091;28;20474;-74
2022/08/04 11:49:33;;;;;;;0.70;0.57;;;37.20;35.80;;;;;;5036328;28;20427;-73
2022/08/04 11:52:01;;;;;;;0.63;0.53;;;37.30;35.30;;;;;;5035932;28;20934;-73
2022/08/04 11:54:28;;;;;;;0.70;0.50;;;37.60;35.20;;;;;;5035925;28;21000;-73
2022/08/04 11:56:56;;;;;;;1.13;0.60;;;37.60;35.40;;;;;;5036031;28;20463;-73
2022/08/04 11:59:25;;;;;;;0.70;0.70;;;37.30;35.10;;;;;;5036085;28;20446;-73
2022/08/04 12:02:20;;;;;;;0.60;0.50;;;37.00;35.70;;;;;;5036104;28;20473;-71
2022/08/04 12:04:55;;;;;;;0.70;0.60;;;36.80;36.50;;;;;;5036003;28;20534;-74
2022/08/04 12:07:38;;;;;;;0.70;0.60;;;37.20;36.00;;;;;;5035627;28;20512;-74
2022/08/04 12:10:17;;;;;;;0.60;0.50;;;37.60;37.00;;;;;;5036011;28;20431;-73
2022/08/04 12:12:49;;;;;;;0.70;0.60;;;37.70;35.00;;;;;;5035928;28;20423;-74
2022/08/04 12:15:23;;;;;;;0.70;0.60;;;37.70;36.10;;;;;;5035530;28;20489;-73
2022/08/04 12:17:58;;;;;;;0.70;0.50;;;37.10;35.60;;;;;;5035687;28;20467;-73
2022/08/04 12:20:27;;;;;;;1.57;0.60;;;37.10;35.90;;;;;;5035750;28;20514;-72
2022/08/04 12:22:55;;;;;;;0.70;0.60;;;37.30;35.50;;;;;;5036684;28;20451;-72
2022/08/04 12:25:30;;;;;;;0.60;0.60;;;37.50;36.10;;;;;;5035661;28;20498;-73
2022/08/04 12:28:02;;;;;;;0.80;0.70;;;37.40;35.80;;;;;;5035829;28;20427;-74
2022/08/04 12:30:36;;;;;;;0.60;0.50;;;37.00;35.70;;;;;;5035264;28;20937;-74
2022/08/04 12:33:10;;;;;;;0.63;0.60;;;37.20;35.70;;;;;;5035526;28;20489;-74
2022/08/04 12:35:44;;;;;;;1.57;0.60;;;37.40;36.80;;;;;;5035397;28;20562;-73
2022/08/04 12:38:13;;;;;;;0.70;0.60;;;37.60;37.70;;;;;;5035789;28;20884;-73
2022/08/04 12:40:46;;;;;;;0.60;0.50;;;37.90;36.60;;;;;;5035343;28;20535;-73
2022/08/04 12:43:18;;;;;;;0.70;0.50;;;38.20;37.80;;;;;;5035290;28;20435;-73
2022/08/04 12:45:51;;;;;;;0.70;0.60;;;38.60;36.20;;;;;;5034930;28;20647;-74
2022/08/04 12:48:18;;;;;;;0.70;0.60;;;39.00;36.70;;;;;;5035244;28;20189;-74
2022/08/04 12:50:49;;;;;;;0.60;0.50;;;39.30;35.60;;;;;;5035103;28;20258;-74
2022/08/04 12:53:18;;;;;;;0.70;0.68;;;39.60;35.20;;;;;;5035079;28;20185;-74
2022/08/04 12:55:47;;;;;;;0.70;0.68;;;39.80;35.30;;;;;;5034775;28;20603;-74
2022/08/04 12:58:17;;;;;;;5.07;4.63;;;40.10;34.40;;;;;;5034205;28;20464;-73
2022/08/04 13:00:52;;;;;;;0.70;0.60;;;40.30;33.40;;;;;;5034949;28;20218;-74
2022/08/04 13:03:22;;;;;;;0.70;0.60;;;40.60;33.70;;;;;;5034966;28;20254;-73
2022/08/04 13:05:53;;;;;;;0.80;0.60;;;40.20;32.90;;;;;;5034764;28;20478;-73
2022/08/04 13:08:21;;;;;;;0.70;0.60;;;39.70;33.90;;;;;;5034861;28;20493;-73
2022/08/04 13:10:51;;;;;;;0.70;0.50;;;39.30;35.40;;;;;;5034462;28;20791;-73
2022/08/04 13:13:19;;;;;;;0.70;0.60;;;39.10;36.20;;;;;;5034703;28;20453;-73
2022/08/04 13:15:59;;;;;;;0.70;0.60;;;39.00;36.00;;;;;;5034184;28;20482;-73
2022/08/04 13:18:28;;;;;;;0.70;0.60;;;39.00;35.70;;;;;;5034498;28;20486;-73
2022/08/04 13:20:56;;;;;;;0.70;0.50;;;38.80;36.00;;;;;;5034209;28;20798;-74
2022/08/04 13:23:27;;;;;;;1.00;0.60;;;38.60;35.50;;;;;;5034496;28;20447;-74
2022/08/04 13:25:56;;;;;;;0.70;0.60;;;38.50;35.70;;;;;;5034426;28;20477;-74
2022/08/04 13:28:25;;;;;;;0.70;0.60;;;38.30;36.20;;;;;;5034389;28;20443;-74
2022/08/04 13:30:55;;;;;;;0.70;0.60;;;38.10;36.50;;;;;;5034406;28;20501;-74
2022/08/04 13:33:29;;;;;;;0.70;0.50;;;38.00;35.30;;;;;;5033806;28;20431;-73
2022/08/04 13:35:57;;;;;;;0.70;0.50;;;37.70;36.10;;;;;;5034265;28;20467;-74
2022/08/04 13:38:26;;;;;;;0.70;0.63;;;37.80;36.20;;;;;;5034204;28;20478;-74
2022/08/04 13:40:56;;;;;;;0.70;0.60;;;38.20;36.80;;;;;;5034264;28;20447;-73
2022/08/04 13:43:26;;;;;;;0.80;0.60;;;38.50;36.00;;;;;;5035195;28;20462;-73
2022/08/04 13:46:01;;;;;;;0.63;0.50;;;38.70;35.40;;;;;;5034048;28;20585;-74
2022/08/04 13:48:33;;;;;;;0.60;0.50;;;38.40;35.10;;;;;;5034088;28;20489;-73
2022/08/04 13:51:04;;;;;;;0.67;0.50;;;38.30;36.20;;;;;;5034083;28;20913;-73
2022/08/04 13:53:31;;;;;;;0.70;0.60;;;38.40;35.40;;;;;;5033736;28;20858;-73
2022/08/04 13:56:00;;;;;;;1.00;0.70;;;38.40;35.20;;;;;;5033854;28;20470;-73
2022/08/04 13:58:29;;;;;;;0.70;0.60;;;38.40;34.90;;;;;;5033775;28;20513;-74
2022/08/04 14:01:00;;;;;;;0.70;0.50;;;38.20;35.10;;;;;;5033766;28;20500;-73
2022/08/04 14:03:33;;;;;;;0.93;0.60;;;38.00;35.10;;;;;;5033743;28;20435;-73
2022/08/04 14:06:24;;;;;;;1.10;0.60;;;37.90;36.20;;;;;;5033985;28;20463;-73
2022/08/04 14:08:54;;;;;;;0.83;0.60;;;38.20;37.70;;;;;;5030053;28;20935;-72
2022/08/04 14:11:23;;;;;;;0.70;0.50;;;38.50;35.90;;;;;;5034076;28;20501;-73
2022/08/04 14:13:50;;;;;;;0.70;0.60;;;38.70;34.30;;;;;;5034865;28;20446;-73
2022/08/04 14:16:19;;;;;;;0.70;0.53;;;38.90;35.70;;;;;;5033153;28;20977;-74
2022/08/04 14:18:46;;;;;;;0.60;0.50;;;39.10;35.00;;;;;;5033479;28;20483;-73
2022/08/04 14:21:14;;;;;;;0.90;0.60;;;39.10;34.90;;;;;;5033568;28;20450;-74
2022/08/04 14:23:49;;;;;;;0.70;0.50;;;39.10;34.60;;;;;;5033548;28;20861;-73
2022/08/04 14:26:25;;;;;;;0.70;0.60;;;39.00;34.50;;;;;;5033815;28;20494;-73
2022/08/04 14:28:56;;;;;;;0.70;0.60;;;39.10;34.50;;;;;;5033185;28;20818;-74
2022/08/04 14:31:25;;;;;;;0.70;0.60;;;39.20;35.60;;;;;;5033234;28;20470;-74
2022/08/04 14:33:53;;;;;;;0.70;0.60;;;39.30;35.10;;;;;;5033444;28;20451;-74
2022/08/04 14:36:20;;;;;;;0.70;0.50;;;39.30;35.30;;;;;;5033301;28;20803;-74
2022/08/04 14:38:51;;;;;;;1.00;0.60;;;39.50;35.90;;;;;;5033281;28;20478;-73
2022/08/04 14:41:20;;;;;;;0.70;0.60;;;39.60;34.50;;;;;;5033056;28;20909;-73
2022/08/04 14:43:49;;;;;;;0.67;0.53;;;39.70;34.50;;;;;;5033303;28;20439;-74
2022/08/04 14:46:16;;;;;;;0.80;0.60;;;39.70;33.80;;;;;;5035150;28;20829;-74
2022/08/04 14:49:05;;;;;;;0.80;0.50;;;39.50;33.90;;;;;;5037426;28;20442;-73
2022/08/04 14:51:40;;;;;;;0.70;0.60;;;39.40;34.50;;;;;;5037174;28;20457;-73
2022/08/04 14:54:09;;;;;;;0.70;0.60;;;39.40;35.50;;;;;;5037398;28;20431;-74
2022/08/04 14:56:38;;;;;;;0.70;0.60;;;39.40;34.80;;;;;;5037191;28;20470;-73
2022/08/04 14:59:08;;;;;;;0.70;0.53;;;39.40;35.30;;;;;;5037184;28;20479;-72
2022/08/04 15:01:36;;;;;;;2.40;0.70;;;39.50;35.30;;;;;;5037224;28;20504;-72
2022/08/04 15:04:04;;;;;;;1.00;0.53;;;39.50;34.70;;;;;;5037144;28;20447;-72
2022/08/04 15:06:32;;;;;;;3.17;0.70;;;39.60;33.70;;;;;;5037023;28;20474;-73
2022/08/04 15:09:03;;;;;;;0.70;0.50;;;39.80;35.00;;;;;;5037053;28;20458;-72
2022/08/04 15:11:31;;;;;;;1.13;0.60;;;39.90;34.40;;;;;;5037046;28;20430;-73
2022/08/04 15:13:58;;;;;;;0.70;0.60;;;39.90;34.50;;;;;;5037139;28;20451;-73
2022/08/04 15:16:28;;;;;;;0.70;0.50;;;39.90;35.10;;;;;;5060863;22;20573;-73
2022/08/04 15:18:55;;;;;;;0.60;0.57;;;39.90;33.90;;;;;;5037145;28;20485;-76
2022/08/04 15:21:22;;;;;;;0.60;0.50;;;39.90;34.50;;;;;;5037310;28;20435;-75
2022/08/04 15:23:49;;;;;;;0.70;0.60;;;40.10;34.00;;;;;;5037055;28;20450;-75
2022/08/04 15:26:22;;;;;;;0.70;0.63;;;40.40;33.40;;;;;;5036869;28;20228;-75
2022/08/04 15:28:54;;;;;;;0.67;0.60;;;40.70;32.90;;;;;;5036897;28;20442;-75
2022/08/04 15:31:22;;;;;;;0.70;0.60;;;40.50;32.30;;;;;;5036756;28;20192;-75
2022/08/04 15:33:50;;;;;;;0.70;0.60;;;40.00;32.50;;;;;;5036360;28;20989;-74
2022/08/04 15:36:22;;;;;;;0.70;0.60;;;40.00;33.80;;;;;;5036607;28;20879;-75
2022/08/04 15:38:53;;;;;;;0.70;0.60;;;40.40;33.40;;;;;;5036617;28;20212;-74
2022/08/04 15:41:30;;;;;;;0.80;0.70;;;40.60;33.40;;;;;;5036602;28;20447;-74
2022/08/04 15:44:35;;;;;;;0.60;0.60;;;40.60;33.40;;;;;;5036519;28;20431;-74
2022/08/04 15:47:13;;;;;;;0.70;0.50;;;40.40;33.90;;;;;;5036629;28;20871;-74
2022/08/04 15:49:40;;;;;;;0.80;0.63;;;40.00;33.60;;;;;;5036429;28;20442;-75
2022/08/04 15:52:08;;;;;;;0.70;0.60;;;39.70;35.00;;;;;;5036344;28;20443;-74
2022/08/04 15:54:35;;;;;;;0.97;0.60;;;39.40;34.00;;;;;;5036290;28;20493;-75
2022/08/04 15:57:03;;;;;;;0.80;0.60;;;39.20;34.90;;;;;;5035677;28;20473;-74
2022/08/04 16:00:00;;;;;;;0.80;0.60;;;39.00;34.60;;;;;;5036240;28;20487;-75
2022/08/04 16:02:37;;;;;;;0.80;0.70;;;38.90;35.40;;;;;;5035957;28;20964;-75
2022/08/04 16:05:32;;;;;;;1.23;0.60;;;38.80;34.70;;;;;;5036608;28;20434;-74
2022/08/04 16:08:00;;;;;;;0.70;0.60;;;38.80;35.50;;;;;;5036052;28;20454;-75
2022/08/04 16:10:37;;;;;;;1.10;0.80;;;38.60;35.90;;;;;;5036061;28;20439;-75
2022/08/04 16:13:06;;;;;;;0.70;0.70;;;38.60;35.10;;;;;;5036015;28;20514;-75
2022/08/04 16:15:55;;;;;;;0.70;0.60;;;38.40;34.90;;;;;;5035800;28;20457;-76
2022/08/04 16:18:38;;;;;;;0.80;0.60;;;38.20;34.80;;;;;;5035825;28;20443;-74
2022/08/04 16:21:06;;;;;;;0.80;0.63;;;37.90;35.60;;;;;;5035531;28;20902;-74
2022/08/04 16:24:10;;;;;;;0.70;0.50;;;37.60;34.80;;;;;;5035700;28;20446;-75
2022/08/04 16:26:44;;;;;;;0.70;0.60;;;37.30;35.90;;;;;;5035819;28;20516;-74
2022/08/04 16:29:29;;;;;;;1.33;0.60;;;37.20;35.10;;;;;;5035830;28;20481;-74
2022/08/04 16:32:18;;;;;;;0.77;0.57;;;37.10;35.80;;;;;;5035327;28;20856;-74
2022/08/04 16:34:54;;;;;;;0.70;0.60;;;36.70;37.10;;;;;;5035655;28;20454;-74